createdAt,value
2022-07-30T00:30:32.781Z,1007.93
2022-07-30T00:31:13.818Z,1007.92
2022-07-30T00:31:54.276Z,1007.93
2022-07-30T00:32:34.737Z,1007.9
2022-07-30T00:33:15.283Z,1007.93
2022-07-30T00:33:55.724Z,1007.93
2022-07-30T00:34:36.287Z,1007.91
2022-07-30T00:35:16.749Z,1007.94
2022-07-30T00:35:57.246Z,1007.94
2022-07-30T00:36:37.795Z,1007.97
2022-07-30T00:37:18.305Z,1007.96
2022-07-30T00:37:58.864Z,1008
2022-07-30T00:38:39.278Z,1007.95
2022-07-30T00:39:20.561Z,1007.95
2022-07-30T00:40:00.317Z,1007.97
2022-07-30T00:40:40.743Z,1007.95
2022-07-30T00:41:21.218Z,1007.97
2022-07-30T00:42:42.172Z,1007.92
2022-07-30T00:43:22.674Z,1007.95
2022-07-30T00:44:03.211Z,1007.95
2022-07-30T00:44:43.661Z,1007.96
2022-07-30T00:45:24.158Z,1007.98
2022-07-30T00:46:04.650Z,1007.95
2022-07-30T00:46:45.121Z,1007.96
2022-07-30T00:47:25.624Z,1008.01
2022-07-30T00:48:06.137Z,1008
2022-07-30T00:48:46.706Z,1007.98
2022-07-30T00:49:27.250Z,1007.97
2022-07-30T00:50:07.560Z,1007.98
2022-07-30T00:50:48.037Z,1007.97
2022-07-30T00:51:28.490Z,1008.02
2022-07-30T00:52:08.916Z,1008.01
2022-07-30T00:52:49.623Z,1008
2022-07-30T00:53:30.142Z,1008
2022-07-30T00:54:10.657Z,1008.03
2022-07-30T00:54:51.122Z,1007.98
2022-07-30T00:56:12.205Z,1008.02
2022-07-30T00:56:52.572Z,1008.05
2022-07-30T00:57:33.096Z,1008.06
2022-07-30T00:58:13.522Z,1008.06
2022-07-30T00:58:54.063Z,1008.02
2022-07-30T00:59:34.535Z,1007.99
2022-07-30T01:00:15.052Z,1008.03
2022-07-30T01:00:55.536Z,1008
2022-07-30T01:01:36.050Z,1008.03
2022-07-30T01:02:16.498Z,1008
2022-07-30T01:02:56.931Z,1008.01
2022-07-30T01:03:37.404Z,1008.02
2022-07-30T01:04:17.855Z,1007.96
2022-07-30T01:04:58.382Z,1008.01
2022-07-30T01:05:38.861Z,1008.04
2022-07-30T01:06:19.366Z,1008.03
2022-07-30T01:07:00.006Z,1008.03
2022-07-30T01:07:40.318Z,1008.04
2022-07-30T01:08:20.872Z,1008.04
2022-07-30T01:09:01.264Z,1008.05
2022-07-30T01:09:41.793Z,1008.01
2022-07-30T01:10:22.222Z,1008.05
2022-07-30T01:11:02.745Z,1008.07
2022-07-30T01:11:43.268Z,1008.05
2022-07-30T01:12:23.743Z,1008.1
2022-07-30T01:14:36.978Z,1008.06
2022-07-30T01:15:17.131Z,1008.06
2022-07-30T01:15:57.656Z,1008.05
2022-07-30T01:16:38.284Z,1008.04
2022-07-30T01:17:18.734Z,1008
2022-07-30T01:17:59.175Z,1008.04
2022-07-30T01:18:39.653Z,1008.03
2022-07-30T01:19:20.129Z,1008.02
2022-07-30T01:20:00.593Z,1008.01
2022-07-30T01:21:21.598Z,1008.03
2022-07-30T01:22:02.080Z,1008.03
2022-07-30T01:22:42.583Z,1008.06
2022-07-30T01:23:23.052Z,1008.04
2022-07-30T01:24:03.628Z,1008.04
2022-07-30T01:24:44.076Z,1008.02
2022-07-30T01:25:24.553Z,1008.02
2022-07-30T01:26:05.079Z,1008.01
2022-07-30T01:26:45.588Z,1008.02
2022-07-30T01:27:26.054Z,1008.04
2022-07-30T01:28:06.519Z,1008.04
2022-07-30T01:28:47.011Z,1008.02
2022-07-30T01:29:27.484Z,1008.02
2022-07-30T01:30:07.993Z,1007.99
2022-07-30T01:30:49.153Z,1008.02
2022-07-30T01:31:29.074Z,1008.01
2022-07-30T01:32:09.528Z,1008
2022-07-30T01:32:50.024Z,1008
2022-07-30T01:33:30.524Z,1008.04
2022-07-30T01:34:11.042Z,1008.03
2022-07-30T01:34:51.490Z,1008.04
2022-07-30T01:35:31.996Z,1008.07
2022-07-30T01:36:12.478Z,1008.06
2022-07-30T01:36:53.019Z,1008.06
2022-07-30T01:37:33.457Z,1008.06
2022-07-30T01:38:13.998Z,1008.06
2022-07-30T01:38:54.527Z,1008.03
2022-07-30T01:39:35.045Z,1008.04
2022-07-30T01:40:15.518Z,1008.03
2022-07-30T01:40:56.044Z,1008.04
2022-07-30T01:41:36.554Z,1008.09
2022-07-30T01:42:17.067Z,1008.09
2022-07-30T01:42:57.548Z,1008.04
2022-07-30T01:43:38.063Z,1008.06
2022-07-30T01:46:51.745Z,1008.08
2022-07-30T01:47:32.556Z,1008.1
2022-07-30T01:48:13.015Z,1008.12
2022-07-30T01:48:53.512Z,1008.1
2022-07-30T01:49:34.000Z,1008.11
2022-07-30T01:50:14.472Z,1008.13
2022-07-30T01:50:55.036Z,1008.13
2022-07-30T01:51:37.339Z,1008.13
2022-07-30T01:52:15.937Z,1008.12
2022-07-30T01:52:56.457Z,1008.13
2022-07-30T01:53:36.998Z,1008.13
2022-07-30T01:54:17.484Z,1008.18
2022-07-30T01:54:57.913Z,1008.18
2022-07-30T01:55:38.363Z,1008.14
2022-07-30T01:56:18.856Z,1008.15
2022-07-30T01:56:59.540Z,1008.17
2022-07-30T01:57:39.833Z,1008.17
2022-07-30T01:58:20.278Z,1008.16
2022-07-30T01:59:00.812Z,1008.13
2022-07-30T01:59:41.359Z,1008.17
2022-07-30T02:00:21.852Z,1008.15
2022-07-30T02:01:02.281Z,1008.14
2022-07-30T02:01:42.683Z,1008.16
2022-07-30T02:02:23.181Z,1008.16
2022-07-30T02:03:03.663Z,1008.13
2022-07-30T02:03:44.219Z,1008.14
2022-07-30T02:04:24.651Z,1008.15
2022-07-30T02:05:05.164Z,1008.14
2022-07-30T02:05:45.661Z,1008.15
2022-07-30T02:06:26.119Z,1008.16
2022-07-30T02:07:06.589Z,1008.12
2022-07-30T02:07:47.129Z,1008.15
2022-07-30T02:08:27.602Z,1008.14
2022-07-30T02:09:10.582Z,1008.15
2022-07-30T02:09:48.565Z,1008.16
2022-07-30T02:10:29.118Z,1008.15
2022-07-30T02:11:09.680Z,1008.19
2022-07-30T02:11:50.138Z,1008.18
2022-07-30T02:12:30.598Z,1008.18
2022-07-30T02:13:11.051Z,1008.21
2022-07-30T02:13:51.537Z,1008.22
2022-07-30T02:14:32.963Z,1008.17
2022-07-30T02:15:13.489Z,1008.2
2022-07-30T02:15:53.950Z,1008.18
2022-07-30T02:16:34.449Z,1008.17
2022-07-30T02:17:55.370Z,1008.19
2022-07-30T02:18:35.899Z,1008.16
2022-07-30T02:19:16.312Z,1008.18
2022-07-30T02:19:56.850Z,1008.17
2022-07-30T02:20:38.536Z,1008.18
2022-07-30T02:21:17.845Z,1008.17
2022-07-30T02:21:58.356Z,1008.18
2022-07-30T02:22:38.901Z,1008.19
2022-07-30T02:23:19.331Z,1008.13
2022-07-30T02:23:59.810Z,1008.18
2022-07-30T02:24:40.288Z,1008.14
2022-07-30T02:25:20.803Z,1008.11
2022-07-30T02:26:01.307Z,1008.13
2022-07-30T02:26:41.785Z,1008.14
2022-07-30T02:27:22.310Z,1008.12
2022-07-30T02:28:02.717Z,1008.11
2022-07-30T02:28:43.302Z,1008.18
2022-07-30T02:29:23.808Z,1008.16
2022-07-30T02:30:44.766Z,1008.14
2022-07-30T02:31:25.317Z,1008.17
2022-07-30T02:32:05.752Z,1008.16
2022-07-30T02:33:26.754Z,1008.17
2022-07-30T02:34:07.312Z,1008.12
2022-07-30T02:34:47.730Z,1008.16
2022-07-30T02:35:28.208Z,1008.15
2022-07-30T02:36:09.759Z,1008.21
2022-07-30T02:36:49.163Z,1008.15
2022-07-30T02:37:44.073Z,1008.17
2022-07-30T02:38:10.228Z,1008.16
2022-07-30T02:38:50.653Z,1008.19
2022-07-30T02:39:31.196Z,1008.17
2022-07-30T02:40:11.697Z,1008.19
2022-07-30T02:40:52.129Z,1008.2
2022-07-30T02:41:32.634Z,1008.21
2022-07-30T02:42:13.093Z,1008.22
2022-07-30T02:42:53.587Z,1008.18
2022-07-30T02:43:35.510Z,1008.17
2022-07-30T02:44:14.622Z,1008.22
2022-07-30T02:44:55.190Z,1008.21
2022-07-30T02:46:16.130Z,1008.21
2022-07-30T02:46:56.719Z,1008.22
2022-07-30T02:47:37.059Z,1008.2
2022-07-30T02:48:28.383Z,1008.22
2022-07-30T02:48:58.080Z,1008.19
2022-07-30T02:49:38.513Z,1008.24
2022-07-30T02:50:19.022Z,1008.25
2022-07-30T02:50:59.517Z,1008.2
2022-07-30T02:51:40.011Z,1008.23
2022-07-30T02:52:20.484Z,1008.21
2022-07-30T02:53:41.439Z,1008.22
2022-07-30T02:54:21.908Z,1008.21
2022-07-30T02:55:02.424Z,1008.17
2022-07-30T02:55:42.922Z,1008.28
2022-07-30T02:56:23.397Z,1008.25
2022-07-30T02:57:04.107Z,1008.26
2022-07-30T02:57:44.476Z,1008.2
2022-07-30T02:58:24.960Z,1008.23
2022-07-30T02:59:05.424Z,1008.25
2022-07-30T02:59:45.911Z,1008.24
2022-07-30T03:00:26.467Z,1008.27
2022-07-30T03:01:06.967Z,1008.23
2022-07-30T03:01:47.438Z,1008.26
2022-07-30T03:02:29.161Z,1008.25
2022-07-30T03:03:48.892Z,1008.27
2022-07-30T03:04:29.430Z,1008.27
2022-07-30T03:05:09.867Z,1008.22
2022-07-30T03:05:50.666Z,1008.28
2022-07-30T03:06:31.174Z,1008.28
2022-07-30T03:07:12.018Z,1008.31
2022-07-30T03:07:52.105Z,1008.28
2022-07-30T03:08:32.572Z,1008.29
2022-07-30T03:09:13.062Z,1008.27
2022-07-30T03:09:53.569Z,1008.28
2022-07-30T03:10:34.101Z,1008.33
2022-07-30T03:11:14.636Z,1008.33
2022-07-30T03:11:55.175Z,1008.29
2022-07-30T03:12:35.670Z,1008.28
2022-07-30T03:13:56.658Z,1008.3
2022-07-30T03:14:37.124Z,1008.27
2022-07-30T03:15:17.632Z,1008.3
2022-07-30T03:15:58.743Z,1008.26
2022-07-30T03:16:39.229Z,1008.3
2022-07-30T03:17:19.685Z,1008.27
2022-07-30T03:18:00.163Z,1008.29
2022-07-30T03:18:40.676Z,1008.26
2022-07-30T03:19:21.218Z,1008.31
2022-07-30T03:20:01.787Z,1008.33
2022-07-30T03:20:42.254Z,1008.31
2022-07-30T03:21:22.841Z,1008.31
2022-07-30T03:22:03.254Z,1008.26
2022-07-30T03:22:43.742Z,1008.31
2022-07-30T03:23:24.253Z,1008.3
2022-07-30T03:24:04.689Z,1008.31
2022-07-30T03:24:45.234Z,1008.29
2022-07-30T03:25:25.730Z,1008.28
2022-07-30T03:26:06.196Z,1008.3
2022-07-30T03:26:46.704Z,1008.31
2022-07-30T03:27:27.132Z,1008.29
2022-07-30T03:28:07.600Z,1008.35
2022-07-30T03:28:48.401Z,1008.3
2022-07-30T03:29:28.674Z,1008.28
2022-07-30T03:30:09.190Z,1008.31
2022-07-30T03:30:49.696Z,1008.29
2022-07-30T03:31:36.213Z,1008.3
2022-07-30T03:32:11.690Z,1008.3
2022-07-30T03:32:51.139Z,1008.33
2022-07-30T03:33:33.634Z,1008.33
2022-07-30T03:34:12.621Z,1008.34
2022-07-30T03:34:52.613Z,1008.35
2022-07-30T03:35:33.105Z,1008.37
2022-07-30T03:36:13.573Z,1008.35
2022-07-30T03:36:54.022Z,1008.36
2022-07-30T03:37:34.482Z,1008.32
2022-07-30T03:38:14.963Z,1008.35
2022-07-30T03:38:55.447Z,1008.39
2022-07-30T03:39:35.995Z,1008.39
2022-07-30T03:40:16.502Z,1008.39
2022-07-30T03:40:56.984Z,1008.36
2022-07-30T03:41:37.442Z,1008.38
2022-07-30T03:42:17.946Z,1008.38
2022-07-30T03:42:58.441Z,1008.41
2022-07-30T03:43:38.883Z,1008.39
2022-07-30T03:44:19.443Z,1008.42
2022-07-30T03:44:59.922Z,1008.45
2022-07-30T03:45:40.377Z,1008.43
2022-07-30T03:46:20.951Z,1008.46
2022-07-30T03:47:01.603Z,1008.46
2022-07-30T03:47:41.844Z,1008.42
2022-07-30T03:48:22.308Z,1008.45
2022-07-30T03:49:02.817Z,1008.45
2022-07-30T03:49:43.292Z,1008.47
2022-07-30T03:50:23.800Z,1008.43
2022-07-30T03:51:04.347Z,1008.47
2022-07-30T03:51:44.825Z,1008.46
2022-07-30T03:52:25.295Z,1008.5
2022-07-30T03:53:05.796Z,1008.52
2022-07-30T03:53:46.286Z,1008.51
2022-07-30T03:54:26.886Z,1008.56
2022-07-30T03:55:07.367Z,1008.57
2022-07-30T03:55:47.878Z,1008.53
2022-07-30T03:56:28.397Z,1008.57
2022-07-30T03:57:08.854Z,1008.56
2022-07-30T03:57:49.310Z,1008.54
2022-07-30T03:58:32.167Z,1008.55
2022-07-30T03:59:10.296Z,1008.57
2022-07-30T03:59:50.806Z,1008.57
2022-07-30T04:00:31.298Z,1008.59
2022-07-30T04:01:11.789Z,1008.56
2022-07-30T04:01:52.286Z,1008.61
2022-07-30T04:02:32.744Z,1008.6
2022-07-30T04:03:13.271Z,1008.63
2022-07-30T04:03:53.767Z,1008.65
2022-07-30T04:04:34.173Z,1008.65
2022-07-30T04:05:14.696Z,1008.67
2022-07-30T04:05:55.152Z,1008.69
2022-07-30T04:06:35.643Z,1008.67
2022-07-30T04:07:16.181Z,1008.68
2022-07-30T04:07:56.608Z,1008.66
2022-07-30T04:08:37.130Z,1008.69
2022-07-30T04:09:17.576Z,1008.65
2022-07-30T04:09:58.100Z,1008.68
2022-07-30T04:10:38.557Z,1008.7
2022-07-30T04:11:19.089Z,1008.69
2022-07-30T04:11:59.559Z,1008.7
2022-07-30T04:14:58.972Z,1008.7
2022-07-30T04:16:04.739Z,1008.71
2022-07-30T04:16:40.674Z,1008.71
2022-07-30T04:17:00.900Z,1008.71
2022-07-30T04:17:41.100Z,1008.72
2022-07-30T04:18:21.534Z,1008.72
2022-07-30T04:19:02.033Z,1008.77
2022-07-30T04:19:42.548Z,1008.75
2022-07-30T04:20:23.097Z,1008.76
2022-07-30T04:21:03.710Z,1008.75
2022-07-30T04:21:44.209Z,1008.74
2022-07-30T04:22:24.647Z,1008.76
2022-07-30T04:23:05.193Z,1008.76
2022-07-30T04:24:01.679Z,1008.79
2022-07-30T04:24:26.081Z,1008.73
2022-07-30T04:25:06.570Z,1008.79
2022-07-30T04:25:47.101Z,1008.8
2022-07-30T04:26:27.642Z,1008.81
2022-07-30T04:27:08.182Z,1008.77
2022-07-30T04:27:58.422Z,1008.79
2022-07-30T04:28:29.146Z,1008.8
2022-07-30T04:29:13.912Z,1008.8
2022-07-30T04:29:50.108Z,1008.79
2022-07-30T04:31:11.217Z,1008.78
2022-07-30T04:31:51.608Z,1008.83
2022-07-30T04:32:32.073Z,1008.83
2022-07-30T04:33:12.597Z,1008.86
2022-07-30T04:33:53.085Z,1008.85
2022-07-30T04:34:33.551Z,1008.88
2022-07-30T04:35:14.005Z,1008.9
2022-07-30T04:35:54.579Z,1008.87
2022-07-30T04:36:35.005Z,1008.9
2022-07-30T04:37:15.498Z,1008.88
2022-07-30T04:37:55.970Z,1008.92
2022-07-30T04:38:36.463Z,1008.94
2022-07-30T04:39:16.932Z,1008.96
2022-07-30T04:39:57.408Z,1008.98
2022-07-30T04:41:18.411Z,1008.97
2022-07-30T04:41:58.925Z,1008.97
2022-07-30T04:42:39.455Z,1008.98
2022-07-30T04:44:52.508Z,1009.02
2022-07-30T04:45:33.020Z,1009.01
2022-07-30T04:46:13.594Z,1009.01
2022-07-30T04:46:54.201Z,1009.02
2022-07-30T04:47:34.568Z,1009.03
2022-07-30T04:48:15.023Z,1009.07
2022-07-30T04:48:55.559Z,1009.02
2022-07-30T04:49:36.049Z,1009.07
2022-07-30T04:50:16.542Z,1009.09
2022-07-30T04:50:57.004Z,1009.08
2022-07-30T04:51:37.508Z,1009.07
2022-07-30T04:52:17.965Z,1009.11
2022-07-30T04:52:58.678Z,1009.08
2022-07-30T04:53:38.921Z,1009.1
2022-07-30T04:54:19.421Z,1009.09
2022-07-30T04:54:59.866Z,1009.07
2022-07-30T04:55:40.366Z,1009.15
2022-07-30T04:56:20.875Z,1009.1
2022-07-30T04:57:01.393Z,1009.11
2022-07-30T04:57:41.844Z,1009.11
2022-07-30T04:58:22.347Z,1009.09
2022-07-30T04:59:02.789Z,1009.15
2022-07-30T04:59:43.243Z,1009.1
2022-07-30T05:00:23.748Z,1009.15
2022-07-30T05:01:04.166Z,1009.13
2022-07-30T05:01:44.725Z,1009.15
2022-07-30T05:02:25.137Z,1009.17
2022-07-30T05:03:05.585Z,1009.18
2022-07-30T05:03:46.045Z,1009.16
2022-07-30T05:04:26.584Z,1009.22
2022-07-30T05:05:07.044Z,1009.23
2022-07-30T05:06:28.677Z,1009.27
2022-07-30T05:07:08.438Z,1009.29
2022-07-30T05:07:48.908Z,1009.25
2022-07-30T05:08:29.957Z,1009.24
2022-07-30T05:09:09.931Z,1009.28
2022-07-30T05:09:50.443Z,1009.25
2022-07-30T05:10:30.945Z,1009.27
2022-07-30T05:11:11.451Z,1009.28
2022-07-30T05:11:51.923Z,1009.29
2022-07-30T05:12:32.421Z,1009.32
2022-07-30T05:13:13.120Z,1009.28
2022-07-30T05:13:53.370Z,1009.31
2022-07-30T05:14:33.924Z,1009.31
2022-07-30T05:15:14.455Z,1009.28
2022-07-30T05:15:54.944Z,1009.33
2022-07-30T05:19:09.264Z,1009.37
2022-07-30T05:19:49.728Z,1009.35
2022-07-30T05:20:30.195Z,1009.35
2022-07-30T05:21:10.690Z,1009.38
2022-07-30T05:21:51.261Z,1009.39
2022-07-30T05:22:31.690Z,1009.41
2022-07-30T05:23:12.209Z,1009.37
2022-07-30T05:23:52.657Z,1009.41
2022-07-30T05:24:33.147Z,1009.43
2022-07-30T05:25:15.929Z,1009.38
2022-07-30T05:25:54.137Z,1009.41
2022-07-30T05:26:34.674Z,1009.44
2022-07-30T05:27:15.074Z,1009.44
2022-07-30T05:27:55.601Z,1009.38
2022-07-30T05:28:36.177Z,1009.38
2022-07-30T05:29:19.737Z,1009.43
2022-07-30T05:29:57.236Z,1009.38
2022-07-30T05:30:37.792Z,1009.41
2022-07-30T05:31:18.408Z,1009.42
2022-07-30T05:31:59.079Z,1009.42
2022-07-30T05:32:39.390Z,1009.44
2022-07-30T05:33:19.912Z,1009.46
2022-07-30T05:34:03.229Z,1009.42
2022-07-30T05:34:40.967Z,1009.45
2022-07-30T05:35:21.492Z,1009.46
2022-07-30T05:36:01.992Z,1009.44
2022-07-30T05:36:42.476Z,1009.46
2022-07-30T05:37:22.957Z,1009.48
2022-07-30T05:38:03.430Z,1009.47
2022-07-30T05:38:45.543Z,1009.47
2022-07-30T05:39:25.990Z,1009.44
2022-07-30T05:40:06.542Z,1009.46
2022-07-30T05:40:47.106Z,1009.4
2022-07-30T05:41:32.526Z,1009.44
2022-07-30T05:42:08.099Z,1009.46
2022-07-30T05:42:48.624Z,1009.48
2022-07-30T05:43:29.106Z,1009.49
2022-07-30T05:44:09.704Z,1009.51
2022-07-30T05:44:50.773Z,1009.52
2022-07-30T05:45:31.288Z,1009.51
2022-07-30T05:46:11.813Z,1009.47
2022-07-30T05:46:52.319Z,1009.46
2022-07-30T05:47:32.794Z,1009.48
2022-07-30T05:48:13.231Z,1009.5
2022-07-30T05:48:53.777Z,1009.48
2022-07-30T05:49:34.249Z,1009.53
2022-07-30T05:50:14.809Z,1009.52
2022-07-30T05:50:55.341Z,1009.54
2022-07-30T05:51:35.825Z,1009.54
2022-07-30T05:52:16.338Z,1009.52
2022-07-30T05:52:56.826Z,1009.55
2022-07-30T05:53:37.294Z,1009.55
2022-07-30T06:37:59.571Z,1009.76
2022-07-30T06:38:12.228Z,1009.75
2022-07-30T06:38:52.695Z,1009.78
2022-07-30T06:39:57.192Z,1009.78
2022-07-30T06:40:13.745Z,1009.78
2022-07-30T06:40:54.602Z,1009.81
2022-07-30T06:41:34.703Z,1009.79
2022-07-30T06:42:15.143Z,1009.79
2022-07-30T06:42:55.620Z,1009.84
2022-07-30T06:43:36.486Z,1009.82
2022-07-30T06:44:16.987Z,1009.82
2022-07-30T06:44:57.461Z,1009.82
2022-07-30T06:45:37.976Z,1009.86
2022-07-30T06:46:19.130Z,1009.8
2022-07-30T06:47:01.973Z,1009.84
2022-07-30T06:47:40.018Z,1009.83
2022-07-30T06:48:20.638Z,1009.83
2022-07-30T06:49:01.065Z,1009.86
2022-07-30T06:49:41.593Z,1009.83
2022-07-30T06:50:22.080Z,1009.83
2022-07-30T06:51:02.540Z,1009.85
2022-07-30T06:51:43.073Z,1009.86
2022-07-30T06:52:23.609Z,1009.84
2022-07-30T06:53:04.001Z,1009.8
2022-07-30T06:59:56.887Z,1009.93
2022-07-30T07:00:29.986Z,1009.93
2022-07-30T07:01:11.080Z,1009.93
2022-07-30T07:01:50.978Z,1009.89
2022-07-30T07:02:31.437Z,1009.94
2022-07-30T07:03:12.118Z,1009.97
2022-07-30T07:03:52.494Z,1009.95
2022-07-30T07:04:34.925Z,1009.89
2022-07-30T07:05:15.303Z,1009.95
2022-07-30T07:05:55.874Z,1009.98
2022-07-30T07:06:36.344Z,1009.95
2022-07-30T07:07:26.960Z,1009.92
2022-07-30T07:07:59.431Z,1009.96
2022-07-30T07:08:37.789Z,1009.93
2022-07-30T07:09:18.271Z,1009.98
2022-07-30T07:09:58.821Z,1009.97
2022-07-30T07:10:39.249Z,1009.98
2022-07-30T07:11:19.728Z,1010
2022-07-30T07:12:00.210Z,1009.97
2022-07-30T07:12:40.685Z,1009.98
2022-07-30T07:13:21.142Z,1009.88
2022-07-30T07:14:04.655Z,1009.95
2022-07-30T07:14:42.127Z,1009.98
2022-07-30T07:15:36.555Z,1009.98
2022-07-30T07:16:03.095Z,1009.99
2022-07-30T07:16:43.617Z,1010.02
2022-07-30T07:18:04.623Z,1010.01
2022-07-30T07:18:45.079Z,1010.01
2022-07-30T07:19:59.292Z,1010.04
2022-07-30T07:20:05.987Z,1009.98
2022-07-30T07:20:46.496Z,1010.07
2022-07-30T07:21:26.973Z,1010.02
2022-07-30T07:22:07.486Z,1010.05
2022-07-30T07:22:47.956Z,1010.01
2022-07-30T07:23:38.989Z,1010.05
2022-07-30T07:24:08.907Z,1010.04
2022-07-30T07:24:49.917Z,1010.09
2022-07-30T07:25:30.267Z,1010.09
2022-07-30T07:26:10.799Z,1010.04
2022-07-30T07:26:51.341Z,1010.03
2022-07-30T07:27:31.791Z,1010.03
2022-07-30T07:28:13.631Z,1010.08
2022-07-30T07:28:53.191Z,1010.06
2022-07-30T07:29:33.690Z,1010.05
2022-07-30T07:30:14.150Z,1010.11
2022-07-30T07:30:54.726Z,1010.05
2022-07-30T07:32:02.858Z,1010.09
2022-07-30T07:32:16.388Z,1010.08
2022-07-30T07:32:56.442Z,1010.07
2022-07-30T07:33:36.971Z,1010.06
2022-07-30T07:34:17.380Z,1010.12
2022-07-30T07:34:57.896Z,1010.13
2022-07-30T07:36:18.784Z,1010.08
2022-07-30T07:36:59.534Z,1010.11
2022-07-30T07:37:39.779Z,1010.12
2022-07-30T07:39:00.837Z,1010.18
2022-07-30T07:39:42.375Z,1010.18
2022-07-30T07:40:21.816Z,1010.17
2022-07-30T07:41:02.368Z,1010.18
2022-07-30T07:41:48.568Z,1010.19
2022-07-30T07:42:23.577Z,1010.19
2022-07-30T07:43:03.766Z,1010.22
2022-07-30T07:43:44.240Z,1010.2
2022-07-30T07:44:24.728Z,1010.22
2022-07-30T07:45:05.202Z,1010.24
2022-07-30T07:45:45.847Z,1010.21
2022-07-30T07:46:33.293Z,1010.22
2022-07-30T07:47:06.682Z,1010.2
2022-07-30T07:47:49.164Z,1010.2
2022-07-30T07:48:27.700Z,1010.21
2022-07-30T07:49:08.191Z,1010.24
2022-07-30T07:49:48.636Z,1010.22
2022-07-30T07:50:29.123Z,1010.21
2022-07-30T07:51:09.820Z,1010.22
2022-07-30T07:51:50.110Z,1010.19
2022-07-30T07:52:30.583Z,1010.19
2022-07-30T07:53:11.119Z,1010.22
2022-07-30T07:56:14.230Z,1010.24
2022-07-30T07:56:54.186Z,1010.21
2022-07-30T07:57:34.644Z,1010.21
2022-07-30T07:58:17.568Z,1010.26
2022-07-30T07:58:56.708Z,1010.21
2022-07-30T07:59:39.860Z,1010.22
2022-07-30T08:00:16.590Z,1010.22
2022-07-30T08:01:37.589Z,1010.21
2022-07-30T08:02:18.083Z,1010.23
2022-07-30T08:02:58.612Z,1010.25
2022-07-30T08:03:39.279Z,1010.18
2022-07-30T08:04:20.525Z,1010.17
2022-07-30T08:05:00.912Z,1010.16
2022-07-30T08:05:54.028Z,1010.17
2022-07-30T08:06:21.856Z,1010.16
2022-07-30T08:07:02.909Z,1010.14
2022-07-30T08:07:42.873Z,1010.13
2022-07-30T08:08:23.408Z,1010.14
2022-07-30T08:09:03.921Z,1010.17
2022-07-30T08:09:44.964Z,1010.12
2022-07-30T08:10:24.846Z,1010.11
2022-07-30T08:11:05.338Z,1010.18
2022-07-30T08:11:45.862Z,1010.17
2022-07-30T08:12:26.320Z,1010.16
2022-07-30T08:13:06.794Z,1010.15
2022-07-30T08:13:48.196Z,1010.22
2022-07-30T08:14:27.758Z,1010.16
2022-07-30T08:15:08.302Z,1010.2
2022-07-30T08:15:48.717Z,1010.16
2022-07-30T08:16:29.274Z,1010.22
2022-07-30T08:17:09.810Z,1010.23
2022-07-30T08:17:50.208Z,1010.2
2022-07-30T08:18:30.637Z,1010.19
2022-07-30T08:19:11.105Z,1010.2
2022-07-30T08:19:51.607Z,1010.22
2022-07-30T08:20:33.600Z,1010.2
2022-07-30T08:21:12.589Z,1010.21
2022-07-30T08:21:53.106Z,1010.23
2022-07-30T08:22:33.555Z,1010.17
2022-07-30T08:23:14.047Z,1010.17
2022-07-30T08:24:35.053Z,1010.19
2022-07-30T08:25:22.228Z,1010.24
2022-07-30T08:25:56.023Z,1010.21
2022-07-30T08:26:36.509Z,1010.19
2022-07-30T08:27:17.041Z,1010.2
2022-07-30T08:27:57.466Z,1010.19
2022-07-30T08:28:37.994Z,1010.17
2022-07-30T08:29:18.477Z,1010.22
2022-07-30T08:29:58.967Z,1010.17
2022-07-30T08:30:39.487Z,1010.18
2022-07-30T08:31:19.942Z,1010.18
2022-07-30T08:32:00.652Z,1010.19
2022-07-30T08:32:40.968Z,1010.18
2022-07-30T08:33:21.391Z,1010.21
2022-07-30T08:34:01.873Z,1010.12
2022-07-30T08:34:42.314Z,1010.16
2022-07-30T08:35:22.787Z,1010.23
2022-07-30T08:36:04.502Z,1010.25
2022-07-30T08:36:43.853Z,1010.24
2022-07-30T08:37:24.351Z,1010.23
2022-07-30T08:38:04.772Z,1010.22
2022-07-30T08:38:45.236Z,1010.25
2022-07-30T08:39:25.708Z,1010.21
2022-07-30T08:40:06.199Z,1010.21
2022-07-30T08:40:46.728Z,1010.28
2022-07-30T08:41:27.127Z,1010.27
2022-07-30T08:42:07.650Z,1010.33
2022-07-30T08:42:48.115Z,1010.32
2022-07-30T08:43:28.595Z,1010.33
2022-07-30T08:44:11.753Z,1010.31
2022-07-30T08:44:49.579Z,1010.28
2022-07-30T08:45:34.444Z,1010.28
2022-07-30T08:46:10.555Z,1010.24
2022-07-30T08:46:51.123Z,1010.22
2022-07-30T08:47:31.584Z,1010.18
2022-07-30T08:48:14.994Z,1010.19
2022-07-30T08:48:52.581Z,1010.2
2022-07-30T08:49:33.045Z,1010.19
2022-07-30T08:50:14.455Z,1010.19
2022-07-30T08:50:54.004Z,1010.17
2022-07-30T08:51:34.524Z,1010.17
2022-07-30T08:52:15.010Z,1010.22
2022-07-30T08:52:55.465Z,1010.22
2022-07-30T08:53:35.947Z,1010.22
2022-07-30T08:54:16.438Z,1010.19
2022-07-30T08:54:56.941Z,1010.23
2022-07-30T08:55:37.442Z,1010.2
2022-07-30T08:56:17.957Z,1010.22
2022-07-30T08:56:58.470Z,1010.26
2022-07-30T08:57:39.045Z,1010.31
2022-07-30T08:58:19.530Z,1010.29
2022-07-30T08:59:00.050Z,1010.31
2022-07-30T08:59:53.121Z,1010.3
2022-07-30T09:00:20.982Z,1010.35
2022-07-30T09:01:01.466Z,1010.3
2022-07-30T09:01:41.926Z,1010.32
2022-07-30T09:02:27.296Z,1010.27
2022-07-30T09:03:02.915Z,1010.29
2022-07-30T09:03:44.256Z,1010.3
2022-07-30T09:04:23.872Z,1010.29
2022-07-30T09:05:04.393Z,1010.33
2022-07-30T09:05:44.900Z,1010.3
2022-07-30T09:07:05.881Z,1010.31
2022-07-30T09:07:47.367Z,1010.32
2022-07-30T09:08:27.914Z,1010.29
2022-07-30T09:09:08.526Z,1010.32
2022-07-30T09:09:48.988Z,1010.31
2022-07-30T09:10:29.480Z,1010.3
2022-07-30T09:11:09.997Z,1010.27
2022-07-30T09:11:50.643Z,1010.33
2022-07-30T09:12:31.172Z,1010.32
2022-07-30T09:13:11.635Z,1010.35
2022-07-30T09:13:52.170Z,1010.36
2022-07-30T09:14:32.642Z,1010.38
2022-07-30T09:15:13.113Z,1010.35
2022-07-30T09:15:53.587Z,1010.4
2022-07-30T09:17:14.611Z,1010.35
2022-07-30T09:17:55.144Z,1010.4
2022-07-30T09:18:35.593Z,1010.37
2022-07-30T09:19:16.070Z,1010.35
2022-07-30T09:19:56.537Z,1010.32
2022-07-30T09:20:36.996Z,1010.36
2022-07-30T09:21:17.476Z,1010.33
2022-07-30T09:21:57.978Z,1010.33
2022-07-30T09:22:38.489Z,1010.33
2022-07-30T09:23:19.854Z,1010.38
2022-07-30T09:24:40.818Z,1010.35
2022-07-30T09:25:21.364Z,1010.36
2022-07-30T09:26:01.848Z,1010.38
2022-07-30T09:26:42.336Z,1010.34
2022-07-30T09:27:22.855Z,1010.38
2022-07-30T09:28:03.320Z,1010.38
2022-07-30T09:28:43.819Z,1010.36
2022-07-30T09:30:04.777Z,1010.38
2022-07-30T09:30:45.984Z,1010.37
2022-07-30T09:31:26.888Z,1010.35
2022-07-30T09:32:07.436Z,1010.34
2022-07-30T09:32:48.166Z,1010.29
2022-07-30T09:33:28.642Z,1010.32
2022-07-30T09:34:09.118Z,1010.26
2022-07-30T09:34:49.583Z,1010.25
2022-07-30T09:35:30.067Z,1010.3
2022-07-30T09:36:10.590Z,1010.28
2022-07-30T09:36:51.227Z,1010.32
2022-07-30T09:37:31.733Z,1010.27
2022-07-30T09:38:12.147Z,1010.29
2022-07-30T09:38:52.630Z,1010.27
2022-07-30T09:39:33.118Z,1010.33
2022-07-30T09:40:14.340Z,1010.32
2022-07-30T09:40:57.485Z,1010.3
2022-07-30T09:41:39.712Z,1010.28
2022-07-30T09:42:15.938Z,1010.25
2022-07-30T09:42:56.401Z,1010.28
2022-07-30T09:43:36.897Z,1010.26
2022-07-30T09:44:17.458Z,1010.3
2022-07-30T09:44:57.921Z,1010.29
2022-07-30T09:45:38.428Z,1010.29
2022-07-30T09:46:18.881Z,1010.27
2022-07-30T09:46:59.436Z,1010.29
2022-07-30T09:47:39.888Z,1010.31
2022-07-30T09:48:20.392Z,1010.31
2022-07-30T09:49:00.902Z,1010.31
2022-07-30T09:49:41.339Z,1010.31
2022-07-30T09:50:29.794Z,1010.35
2022-07-30T09:51:02.339Z,1010.38
2022-07-30T09:51:54.889Z,1010.39
2022-07-30T09:52:27.091Z,1010.32
2022-07-30T09:53:03.859Z,1010.33
2022-07-30T09:53:44.378Z,1010.35
2022-07-30T09:54:25.309Z,1010.36
2022-07-30T09:55:05.360Z,1010.27
2022-07-30T09:55:45.833Z,1010.33
2022-07-30T09:56:26.337Z,1010.33
2022-07-30T09:57:06.766Z,1010.3
2022-07-30T09:57:49.314Z,1010.35
2022-07-30T09:58:28.036Z,1010.33
2022-07-30T09:59:18.508Z,1010.32